Orel 5 — EMFH — position and weather

sailwx.info

Track history (hours):
 
Tides and Currents Weather Stations Pressure Air Temp Water Temp Dewpoint Dewpoint Depression Visibility Wind Speed Wind Dir Waves Ship Positions

Orel 5

Last reported at 2017-Mar-28 12:20 UTC. Time now 2017-Mar-29 09:17 UTC.
Position N 46°32' E 032°10'.

Length 108 m; draft 3.4 m.

Type: Cargo ship. MMSI: 272059000.

Date/timePositionNaut miles runAvg speedWind from/ knotsBaromVisibWave heightAir tempDewpointWater temp
2017-Mar-28 12:20N 46°32' E 032°10'7 8.6
2017-Mar-28 11:33N 46°33' E 032°01'9 8.9
2017-Mar-28 10:33N 46°36' E 031°48'36 8.4
2017-Mar-28 06:19N 46°32' E 030°57'  
2017-Mar-19 21:14N 46°23' E 030°55'5 7.9
2017-Mar-19 20:32N 46°29' E 030°55'34 6.7
2017-Mar-19 15:29N 46°36' E 031°43'7 7.7
2017-Mar-19 14:33N 46°34' E 031°54'8 7.5
2017-Mar-19 13:33N 46°32' E 032°04'  
Track history (hours):
 
Tides and Currents Weather Stations Pressure Air Temp Water Temp Dewpoint Dewpoint Depression Visibility Wind Speed Wind Dir Waves Ship Positions

Orel 5

Last reported at 2017-Mar-28 12:20 UTC. Time now 2017-Mar-29 09:17 UTC.
Position N 46°32' E 032°10'.

Length 108 m; draft 3.4 m.

Type: Cargo ship. MMSI: 272059000.

Date/timePositionNaut miles runAvg speedWind from/ knotsBaromVisibWave heightAir tempDewpointWater temp
2017-Mar-28 12:20N 46°32' E 032°10'7 8.6
2017-Mar-28 11:33N 46°33' E 032°01'9 8.9
2017-Mar-28 10:33N 46°36' E 031°48'36 8.4
2017-Mar-28 06:19N 46°32' E 030°57'  
2017-Mar-19 21:14N 46°23' E 030°55'5 7.9
2017-Mar-19 20:32N 46°29' E 030°55'34 6.7
2017-Mar-19 15:29N 46°36' E 031°43'7 7.7
2017-Mar-19 14:33N 46°34' E 031°54'8 7.5
2017-Mar-19 13:33N 46°32' E 032°04'  

Dump ship's entire track history